Terminal Aerodrome Forecast
Issued by NWS

Home | Current Version | Previous Version | Text Only | Print | Product List | Glossary On
Versions: 1 2 3 4 5 6 7 8 9 10 11 12 13 14 15
625
FTUS45 KTFX 301409 AAA
TAFHVR
TAF AMD
KHVR 301409Z 3014/3112 26011KT P6SM -SHRA FEW015 BKN050
      TEMPO 3014/3016 5SM -RA BR SCT015 BKN045
     FM301700 30015G25KT P6SM -SHRA SCT030 BKN060
     FM310300 32018KT P6SM BKN080=

USA.gov is the U.S. government's official web portal to all federal, state and local government web resources and services.